createdAt,value
2019-02-27T00:00:37.003Z,79.68
2019-02-27T00:01:36.974Z,80.02
2019-02-27T00:02:36.968Z,80.71
2019-02-27T00:03:36.952Z,80.30
2019-02-27T00:04:36.943Z,80.19
2019-02-27T00:05:38.858Z,80.33
2019-02-27T00:06:36.934Z,80.51
2019-02-27T00:07:36.920Z,80.54
2019-02-27T00:08:36.908Z,80.44
2019-02-27T00:09:36.896Z,80.95
2019-02-27T00:10:39.272Z,81.05
2019-02-27T00:11:36.879Z,80.65
2019-02-27T00:12:36.862Z,81.16
2019-02-27T00:13:36.840Z,80.85
2019-02-27T00:14:36.833Z,81.05
2019-02-27T00:15:37.969Z,81.05
2019-02-27T00:16:36.804Z,80.85
2019-02-27T00:17:36.818Z,81.26
2019-02-27T00:18:36.782Z,80.99
2019-02-27T00:19:36.776Z,81.09
2019-02-27T00:20:37.172Z,81.37
2019-02-27T00:21:36.751Z,81.20
2019-02-27T00:22:36.752Z,81.20
2019-02-27T00:23:36.760Z,81.47
2019-02-27T00:24:36.721Z,81.26
2019-02-27T00:25:36.765Z,81.37
2019-02-27T00:26:36.721Z,81.37
2019-02-27T00:27:36.687Z,81.30
2019-02-27T00:28:36.670Z,81.30
2019-02-27T00:29:36.654Z,80.99
2019-02-27T00:30:38.117Z,81.05
2019-02-27T00:31:36.645Z,80.95
2019-02-27T00:32:36.715Z,81.16
2019-02-27T00:33:36.619Z,81.47
2019-02-27T00:34:36.619Z,80.85
2019-02-27T00:35:38.651Z,80.54
2019-02-27T00:36:36.628Z,80.44
2019-02-27T00:37:36.634Z,80.75
2019-02-27T00:38:36.614Z,80.89
2019-02-27T00:39:36.639Z,80.85
2019-02-27T00:40:39.377Z,80.85
2019-02-27T00:41:36.529Z,80.95
2019-02-27T00:42:36.562Z,80.79
2019-02-27T00:43:36.515Z,81.26
2019-02-27T00:44:36.495Z,80.95
2019-02-27T00:45:39.677Z,81.16
2019-02-27T00:46:36.468Z,81.26
2019-02-27T00:47:36.520Z,81.57
2019-02-27T00:48:36.477Z,81.05
2019-02-27T00:49:36.457Z,81.26
2019-02-27T00:50:38.938Z,81.20
2019-02-27T00:51:36.425Z,81.09
2019-02-27T00:52:36.402Z,81.20
2019-02-27T00:53:36.394Z,81.30
2019-02-27T00:54:36.388Z,81.92
2019-02-27T00:55:39.378Z,82.02
2019-02-27T00:56:36.370Z,82.64
2019-02-27T00:57:36.358Z,82.02
2019-02-27T00:58:36.347Z,82.23
2019-02-27T00:59:36.399Z,82.54
2019-02-27T01:00:38.987Z,82.74
2019-02-27T01:01:36.310Z,81.92
2019-02-27T01:02:36.314Z,81.61
2019-02-27T01:03:36.274Z,81.09
2019-02-27T01:04:36.266Z,81.20
2019-02-27T01:05:36.265Z,81.61
2019-02-27T01:06:36.254Z,80.99
2019-02-27T01:07:36.253Z,81.40
2019-02-27T01:08:36.241Z,81.40
2019-02-27T01:09:37.218Z,81.20
2019-02-27T01:10:36.295Z,81.30
2019-02-27T01:11:36.199Z,81.30
2019-02-27T01:12:36.194Z,81.30
2019-02-27T01:13:36.184Z,81.85
2019-02-27T01:14:37.164Z,81.85
2019-02-27T01:15:36.143Z,81.30
2019-02-27T01:16:36.135Z,81.23
2019-02-27T01:17:36.139Z,81.44
2019-02-27T01:18:36.121Z,81.13
2019-02-27T01:19:39.188Z,80.82
2019-02-27T01:20:36.094Z,81.65
2019-02-27T01:21:36.101Z,81.34
2019-02-27T01:22:36.069Z,81.17
2019-02-27T01:23:36.087Z,81.37
2019-02-27T01:24:36.075Z,81.37
2019-02-27T01:25:36.079Z,81.58
2019-02-27T01:26:36.053Z,82.71
2019-02-27T01:27:38.101Z,81.79
2019-02-27T01:28:36.019Z,82.57
2019-02-27T01:29:36.001Z,81.65
2019-02-27T01:30:35.993Z,82.20
2019-02-27T01:31:35.967Z,83.33
2019-02-27T01:32:35.951Z,82.20
2019-02-27T01:33:38.234Z,81.85
2019-02-27T01:34:35.942Z,81.34
2019-02-27T01:35:35.953Z,81.65
2019-02-27T01:36:36.139Z,81.17
2019-02-27T01:37:35.901Z,81.13
2019-02-27T01:38:38.015Z,81.17
2019-02-27T01:39:35.917Z,81.27
2019-02-27T01:40:35.868Z,81.17
2019-02-27T01:41:35.859Z,82.10
2019-02-27T01:42:35.840Z,81.58
2019-02-27T01:43:36.899Z,81.79
2019-02-27T01:44:35.822Z,81.89
2019-02-27T01:45:35.816Z,81.99
2019-02-27T01:46:35.808Z,81.79
2019-02-27T01:47:36.526Z,82.61
2019-02-27T01:48:35.808Z,82.20
2019-02-27T01:49:35.771Z,81.89
2019-02-27T01:50:35.758Z,81.99
2019-02-27T01:51:35.848Z,81.68
2019-02-27T01:52:35.747Z,81.68
2019-02-27T01:53:37.900Z,82.40
2019-02-27T01:54:35.709Z,81.58
2019-02-27T01:55:35.696Z,81.82
2019-02-27T01:56:35.690Z,82.03
2019-02-27T01:57:36.818Z,82.03
2019-02-27T01:58:35.692Z,82.61
2019-02-27T01:59:35.654Z,82.20
2019-02-27T02:00:35.634Z,82.40
2019-02-27T02:01:35.642Z,81.68
2019-02-27T02:02:37.579Z,82.51
2019-02-27T02:03:35.628Z,82.75
2019-02-27T02:04:35.608Z,82.24
2019-02-27T02:05:35.584Z,82.75
2019-02-27T02:06:35.586Z,81.99
2019-02-27T02:07:39.868Z,82.03
2019-02-27T02:08:35.554Z,82.40
2019-02-27T02:09:35.557Z,82.34
2019-02-27T02:10:35.534Z,82.03
2019-02-27T02:11:35.643Z,82.45
2019-02-27T02:12:35.509Z,82.34
2019-02-27T02:13:35.501Z,82.24
2019-02-27T02:14:35.487Z,82.65
2019-02-27T02:15:35.501Z,82.65
2019-02-27T02:16:35.460Z,83.17
2019-02-27T02:17:38.229Z,83.99
2019-02-27T02:18:36.442Z,83.99
2019-02-27T02:19:35.435Z,82.55
2019-02-27T02:20:35.437Z,82.75
2019-02-27T02:21:35.488Z,82.86
2019-02-27T02:22:35.395Z,82.96
2019-02-27T02:23:35.463Z,82.75
2019-02-27T02:24:35.384Z,82.55
2019-02-27T02:25:35.389Z,83.62
2019-02-27T02:26:35.650Z,84.03
2019-02-27T02:27:35.364Z,84.23
2019-02-27T02:28:35.379Z,84.34
2019-02-27T02:29:35.313Z,84.23
2019-02-27T02:30:35.340Z,83.41
2019-02-27T02:31:40.778Z,83.20
2019-02-27T02:32:36.301Z,84.03
2019-02-27T02:33:35.319Z,83.51
2019-02-27T02:34:39.786Z,82.69
2019-02-27T02:35:36.263Z,82.75
2019-02-27T02:36:35.256Z,82.14
2019-02-27T02:37:38.006Z,82.34
2019-02-27T02:38:35.260Z,82.14
2019-02-27T02:39:35.222Z,82.96
2019-02-27T02:40:35.203Z,82.03
2019-02-27T02:41:35.190Z,81.93
2019-02-27T02:42:35.184Z,82.65
2019-02-27T02:43:40.155Z,82.75
2019-02-27T02:44:36.234Z,81.82
2019-02-27T02:45:35.146Z,82.65
2019-02-27T02:46:35.134Z,82.24
2019-02-27T02:47:35.133Z,82.24
2019-02-27T02:48:35.125Z,81.58
2019-02-27T02:49:35.167Z,81.89
2019-02-27T02:50:35.109Z,81.58
2019-02-27T02:51:35.090Z,82.86
2019-02-27T02:52:40.220Z,82.30
2019-02-27T02:53:36.070Z,82.55
2019-02-27T02:54:37.538Z,81.99
2019-02-27T02:55:35.037Z,82.55
2019-02-27T02:56:35.048Z,82.34
2019-02-27T02:57:36.262Z,82.14
2019-02-27T02:58:34.999Z,82.14
2019-02-27T02:59:34.989Z,82.03
2019-02-27T03:00:39.079Z,82.24
2019-02-27T03:01:35.021Z,84.09
2019-02-27T03:02:34.956Z,82.65
2019-02-27T03:03:37.256Z,83.06
2019-02-27T03:04:34.960Z,84.09
2019-02-27T03:05:34.933Z,81.82
2019-02-27T03:06:35.965Z,82.65
2019-02-27T03:07:34.900Z,83.68
2019-02-27T03:08:34.890Z,83.58
2019-02-27T03:09:34.875Z,83.48
2019-02-27T03:10:34.866Z,82.61
2019-02-27T03:11:34.876Z,82.61
2019-02-27T03:12:34.840Z,81.58
2019-02-27T03:13:34.833Z,81.89
2019-02-27T03:14:34.824Z,82.61
2019-02-27T03:15:34.817Z,82.34
2019-02-27T03:16:34.868Z,82.75
2019-02-27T03:17:34.815Z,82.24
2019-02-27T03:18:34.789Z,82.14
2019-02-27T03:19:41.205Z,83.48
2019-02-27T03:20:35.764Z,83.27
2019-02-27T03:21:34.808Z,82.65
2019-02-27T03:22:40.480Z,82.61
2019-02-27T03:23:35.726Z,83.44
2019-02-27T03:24:34.718Z,82.20
2019-02-27T03:25:40.235Z,82.82
2019-02-27T03:26:35.695Z,82.51
2019-02-27T03:27:34.682Z,82.14
2019-02-27T03:28:40.612Z,82.86
2019-02-27T03:29:35.656Z,82.82
2019-02-27T03:30:36.688Z,82.75
2019-02-27T03:31:34.630Z,82.75
2019-02-27T03:32:40.890Z,82.65
2019-02-27T03:33:35.629Z,83.58
2019-02-27T03:34:34.613Z,83.99
2019-02-27T03:35:34.620Z,84.09
2019-02-27T03:36:36.112Z,84.09
2019-02-27T03:37:34.561Z,83.58
2019-02-27T03:38:34.559Z,83.27
2019-02-27T03:39:35.779Z,83.33
2019-02-27T03:40:34.566Z,83.44
2019-02-27T03:41:34.530Z,83.03
2019-02-27T03:42:35.213Z,82.20
2019-02-27T03:43:34.520Z,81.89
2019-02-27T03:44:34.485Z,82.30
2019-02-27T03:45:34.486Z,81.99
2019-02-27T03:46:37.969Z,81.89
2019-02-27T03:47:35.465Z,82.61
2019-02-27T03:48:34.468Z,82.61
2019-02-27T03:49:39.726Z,82.75
2019-02-27T03:50:35.420Z,83.68
2019-02-27T03:51:34.416Z,83.85
2019-02-27T03:52:36.469Z,83.85
2019-02-27T03:53:34.441Z,83.13
2019-02-27T03:54:34.373Z,82.51
2019-02-27T03:55:34.362Z,82.82
2019-02-27T03:56:34.387Z,82.30
2019-02-27T03:57:34.379Z,82.20
2019-02-27T03:58:34.325Z,82.26
2019-02-27T03:59:34.319Z,82.47
2019-02-27T04:00:34.318Z,81.34
2019-02-27T04:01:34.316Z,81.03
2019-02-27T04:02:34.297Z,81.03
2019-02-27T04:03:34.269Z,81.34
2019-02-27T04:04:34.267Z,81.23
2019-02-27T04:05:34.256Z,81.34
2019-02-27T04:06:34.249Z,81.20
2019-02-27T04:07:34.234Z,81.54
2019-02-27T04:08:34.244Z,81.03
2019-02-27T04:09:34.215Z,80.72
2019-02-27T04:10:34.197Z,80.93
2019-02-27T04:11:34.184Z,80.93
2019-02-27T04:12:34.171Z,81.27
2019-02-27T04:13:34.170Z,81.37
2019-02-27T04:14:40.108Z,81.34
2019-02-27T04:15:35.153Z,81.23
2019-02-27T04:16:34.131Z,80.93
2019-02-27T04:17:34.117Z,81.13
2019-02-27T04:18:34.108Z,80.93
2019-02-27T04:19:38.695Z,80.82
2019-02-27T04:20:35.088Z,80.20
2019-02-27T04:21:34.067Z,79.90
2019-02-27T04:22:37.551Z,80.30
2019-02-27T04:23:34.074Z,80.62
2019-02-27T04:24:34.056Z,80.51
2019-02-27T04:25:34.063Z,80.41
2019-02-27T04:26:34.064Z,80.34
2019-02-27T04:27:34.003Z,80.86
2019-02-27T04:28:33.998Z,80.86
2019-02-27T04:29:34.016Z,80.55
2019-02-27T04:30:33.988Z,80.55
2019-02-27T04:31:33.962Z,81.07
2019-02-27T04:32:34.007Z,81.17
2019-02-27T04:33:33.937Z,81.00
2019-02-27T04:34:33.935Z,81.41
2019-02-27T04:35:34.397Z,81.31
2019-02-27T04:36:33.913Z,81.31
2019-02-27T04:37:33.899Z,81.31
2019-02-27T04:38:33.879Z,81.31
2019-02-27T04:39:35.826Z,81.72
2019-02-27T04:40:33.863Z,81.51
2019-02-27T04:41:33.865Z,81.21
2019-02-27T04:42:33.841Z,81.24
2019-02-27T04:43:33.827Z,81.45
2019-02-27T04:44:35.908Z,81.96
2019-02-27T04:45:34.818Z,82.59
2019-02-27T04:46:33.805Z,82.00
2019-02-27T04:47:33.797Z,82.21
2019-02-27T04:48:33.779Z,82.28
2019-02-27T04:49:34.775Z,82.00
2019-02-27T04:50:33.754Z,82.62
2019-02-27T04:51:33.817Z,82.83
2019-02-27T04:52:33.730Z,83.45
2019-02-27T04:53:33.745Z,82.73
2019-02-27T04:54:35.087Z,82.73
2019-02-27T04:55:33.689Z,83.80
2019-02-27T04:56:33.684Z,83.76
2019-02-27T04:57:34.293Z,83.45
2019-02-27T04:58:33.662Z,82.73
2019-02-27T04:59:33.644Z,83.80
2019-02-27T05:00:33.633Z,83.86
2019-02-27T05:01:36.250Z,83.59
2019-02-27T05:02:33.611Z,83.28
2019-02-27T05:03:33.604Z,83.14
2019-02-27T05:04:35.290Z,83.59
2019-02-27T05:05:33.585Z,82.87
2019-02-27T05:06:33.568Z,82.66
2019-02-27T05:07:33.560Z,83.07
2019-02-27T05:08:33.552Z,83.28
2019-02-27T05:09:34.021Z,82.97
2019-02-27T05:10:33.894Z,83.42
2019-02-27T05:11:33.510Z,83.63
2019-02-27T05:12:33.501Z,84.25
2019-02-27T05:13:34.577Z,83.53
2019-02-27T05:14:33.484Z,83.63
2019-02-27T05:15:33.492Z,83.94
2019-02-27T05:16:33.460Z,83.94
2019-02-27T05:17:33.450Z,84.45
2019-02-27T05:18:33.445Z,83.77
2019-02-27T05:19:36.908Z,84.29
2019-02-27T05:20:33.432Z,84.77
2019-02-27T05:21:33.413Z,84.91
2019-02-27T05:22:33.487Z,84.08
2019-02-27T05:23:34.140Z,83.98
2019-02-27T05:24:33.375Z,84.29
2019-02-27T05:25:33.359Z,83.98
2019-02-27T05:26:33.364Z,83.98
2019-02-27T05:27:33.357Z,84.29
2019-02-27T05:28:34.983Z,84.95
2019-02-27T05:29:35.195Z,85.84
2019-02-27T05:30:33.314Z,85.84
2019-02-27T05:31:33.298Z,84.25
2019-02-27T05:32:33.296Z,83.63
2019-02-27T05:33:36.494Z,83.22
2019-02-27T05:34:34.261Z,83.32
2019-02-27T05:35:33.242Z,83.11
2019-02-27T05:36:33.244Z,83.01
2019-02-27T05:37:33.234Z,82.70
2019-02-27T05:38:33.227Z,83.84
2019-02-27T05:39:33.854Z,82.50
2019-02-27T05:40:33.288Z,82.18
2019-02-27T05:41:33.789Z,82.39
2019-02-27T05:42:33.190Z,82.80
2019-02-27T05:43:33.169Z,82.29
2019-02-27T05:44:33.162Z,82.70
2019-02-27T05:45:33.134Z,83.11
2019-02-27T05:46:33.128Z,83.01
2019-02-27T05:47:33.137Z,83.01
2019-02-27T05:48:33.112Z,83.01
2019-02-27T05:49:33.104Z,82.90
2019-02-27T05:50:34.257Z,83.46
2019-02-27T05:51:33.076Z,84.29
2019-02-27T05:52:33.072Z,83.84
2019-02-27T05:53:33.051Z,84.19
2019-02-27T05:54:33.039Z,84.29
2019-02-27T05:55:33.043Z,83.98
2019-02-27T05:56:33.024Z,84.29
2019-02-27T05:57:33.035Z,84.05
2019-02-27T05:58:32.994Z,82.74
2019-02-27T05:59:32.983Z,83.05
2019-02-27T06:00:32.982Z,83.15
2019-02-27T06:01:33.067Z,83.15
2019-02-27T06:02:32.969Z,83.77
2019-02-27T06:03:32.937Z,83.67
2019-02-27T06:04:34.425Z,83.71
2019-02-27T06:05:33.618Z,84.19
2019-02-27T06:06:32.941Z,83.46
2019-02-27T06:07:32.912Z,83.56
2019-02-27T06:08:36.795Z,84.01
2019-02-27T06:09:33.877Z,83.77
2019-02-27T06:10:32.862Z,83.81
2019-02-27T06:11:33.181Z,83.61
2019-02-27T06:12:32.933Z,83.87
2019-02-27T06:13:32.839Z,83.98
2019-02-27T06:14:32.817Z,84.08
2019-02-27T06:15:32.810Z,83.46
2019-02-27T06:16:37.083Z,82.18
2019-02-27T06:17:43.084Z,82.39
2019-02-27T06:18:33.772Z,83.22
2019-02-27T06:19:33.720Z,82.29
2019-02-27T06:20:32.760Z,82.45
2019-02-27T06:21:32.753Z,81.94
2019-02-27T06:22:32.729Z,81.38
2019-02-27T06:23:35.332Z,81.21
2019-02-27T06:24:33.707Z,80.97
2019-02-27T06:25:32.713Z,80.25
2019-02-27T06:26:32.996Z,80.35
2019-02-27T06:27:32.675Z,80.25
2019-02-27T06:28:32.670Z,80.35
2019-02-27T06:29:32.673Z,80.21
2019-02-27T06:30:32.652Z,79.63
2019-02-27T06:31:36.795Z,79.28
2019-02-27T06:32:33.628Z,79.08
2019-02-27T06:33:32.616Z,79.28
2019-02-27T06:34:32.610Z,78.77
2019-02-27T06:35:34.237Z,78.08
2019-02-27T06:36:32.598Z,79.01
2019-02-27T06:37:32.567Z,78.80
2019-02-27T06:38:32.560Z,79.83
2019-02-27T06:39:34.442Z,78.70
2019-02-27T06:40:32.540Z,79.42
2019-02-27T06:41:32.528Z,79.56
2019-02-27T06:42:32.586Z,80.25
2019-02-27T06:43:32.500Z,79.83
2019-02-27T06:44:32.491Z,79.83
2019-02-27T06:45:32.504Z,78.91
2019-02-27T06:46:32.470Z,78.91
2019-02-27T06:47:32.989Z,79.32
2019-02-27T06:48:32.445Z,78.49
2019-02-27T06:49:32.434Z,77.77
2019-02-27T06:50:32.425Z,78.49
2019-02-27T06:51:33.365Z,79.32
2019-02-27T06:52:32.395Z,77.36
2019-02-27T06:53:32.410Z,77.36
2019-02-27T06:54:32.382Z,77.67
2019-02-27T06:55:33.811Z,76.94
2019-02-27T06:56:32.355Z,77.25
2019-02-27T06:57:32.358Z,76.90
2019-02-27T06:58:32.343Z,75.36
2019-02-27T06:59:32.330Z,75.46
2019-02-27T07:00:35.808Z,75.05
2019-02-27T07:01:32.363Z,73.91
2019-02-27T07:02:32.297Z,73.91
2019-02-27T07:03:32.952Z,74.74
2019-02-27T07:04:32.267Z,74.53
2019-02-27T07:05:32.262Z,73.50
2019-02-27T07:06:32.259Z,73.81
2019-02-27T07:07:32.242Z,73.71
2019-02-27T07:08:32.240Z,73.39
2019-02-27T07:09:32.229Z,73.91
2019-02-27T07:10:32.212Z,72.57
2019-02-27T07:11:32.199Z,74.84
2019-02-27T07:12:32.188Z,74.22
2019-02-27T07:13:32.182Z,73.39
2019-02-27T07:14:32.173Z,72.16
2019-02-27T07:15:32.166Z,72.33
2019-02-27T07:16:32.142Z,72.33
2019-02-27T07:17:32.487Z,72.13
2019-02-27T07:18:32.124Z,71.71
2019-02-27T07:19:32.107Z,71.20
2019-02-27T07:20:32.108Z,70.99
2019-02-27T07:21:32.816Z,70.68
2019-02-27T07:22:32.082Z,70.47
2019-02-27T07:23:32.065Z,70.03
2019-02-27T07:24:33.602Z,69.54
2019-02-27T07:25:32.042Z,69.65
2019-02-27T07:26:32.036Z,69.72
2019-02-27T07:27:32.014Z,69.82
2019-02-27T07:28:32.024Z,69.41
2019-02-27T07:29:32.002Z,69.51
2019-02-27T07:30:31.986Z,69.72
2019-02-27T07:31:31.986Z,68.27
2019-02-27T07:32:32.163Z,67.32
2019-02-27T07:33:31.953Z,68.24
2019-02-27T07:34:31.950Z,66.91
2019-02-27T07:35:31.933Z,67.21
2019-02-27T07:36:31.921Z,67.52
2019-02-27T07:37:31.912Z,67.32
2019-02-27T07:38:31.905Z,66.28
2019-02-27T07:39:32.769Z,66.87
2019-02-27T07:40:31.876Z,66.18
2019-02-27T07:41:31.872Z,65.74
2019-02-27T07:42:32.605Z,65.84
2019-02-27T07:43:31.835Z,66.25
2019-02-27T07:44:32.218Z,65.46
2019-02-27T07:45:31.817Z,65.77
2019-02-27T07:46:31.800Z,65.88
2019-02-27T07:47:31.797Z,65.88
2019-02-27T07:48:31.796Z,66.28
2019-02-27T07:49:31.849Z,65.77
2019-02-27T07:50:32.569Z,66.08
2019-02-27T07:51:31.747Z,65.88
2019-02-27T07:52:32.496Z,66.08
2019-02-27T07:53:31.731Z,65.46
2019-02-27T07:54:31.724Z,65.53
2019-02-27T07:55:31.707Z,64.71
2019-02-27T07:56:31.694Z,64.61
2019-02-27T07:57:31.693Z,64.29
2019-02-27T07:58:33.802Z,64.50
2019-02-27T07:59:31.668Z,65.33
2019-02-27T08:00:31.675Z,65.12
2019-02-27T08:01:31.669Z,64.19
2019-02-27T08:02:33.757Z,64.61
2019-02-27T08:03:31.626Z,64.27
2019-02-27T08:04:31.603Z,63.54
2019-02-27T08:05:31.604Z,63.34
2019-02-27T08:06:31.580Z,63.45
2019-02-27T08:07:31.616Z,63.24
2019-02-27T08:08:31.556Z,63.45
2019-02-27T08:09:31.558Z,63.54
2019-02-27T08:10:31.544Z,62.82
2019-02-27T08:11:31.547Z,63.03
2019-02-27T08:12:31.520Z,63.65
2019-02-27T08:13:31.502Z,62.52
2019-02-27T08:14:31.505Z,62.10
2019-02-27T08:15:31.498Z,62.10
2019-02-27T08:16:31.489Z,61.49
2019-02-27T08:17:31.461Z,61.18
2019-02-27T08:18:36.618Z,62.10
2019-02-27T08:19:32.441Z,61.49
2019-02-27T08:20:31.422Z,61.49
2019-02-27T08:21:31.421Z,62.59
2019-02-27T08:22:31.408Z,61.80
2019-02-27T08:23:32.700Z,63.00
2019-02-27T08:24:31.378Z,61.87
2019-02-27T08:25:31.392Z,62.79
2019-02-27T08:26:31.354Z,62.70
2019-02-27T08:27:31.350Z,60.63
2019-02-27T08:28:31.382Z,62.18
2019-02-27T08:29:31.320Z,61.05
2019-02-27T08:30:31.313Z,60.71
2019-02-27T08:31:32.123Z,61.63
2019-02-27T08:32:31.963Z,60.61
2019-02-27T08:33:31.295Z,60.09
2019-02-27T08:34:31.264Z,59.37
2019-02-27T08:35:31.255Z,59.86
2019-02-27T08:36:31.252Z,59.34
2019-02-27T08:37:31.261Z,58.52
2019-02-27T08:38:31.246Z,60.91
2019-02-27T08:39:31.253Z,59.96
2019-02-27T08:40:31.208Z,59.86
2019-02-27T08:41:31.628Z,59.34
2019-02-27T08:42:31.191Z,59.45
2019-02-27T08:43:31.171Z,59.22
2019-02-27T08:44:31.166Z,58.93
2019-02-27T08:45:31.146Z,59.52
2019-02-27T08:46:31.141Z,57.88
2019-02-27T08:47:31.144Z,57.78
2019-02-27T08:48:31.134Z,57.57
2019-02-27T08:49:31.865Z,57.98
2019-02-27T08:50:31.762Z,58.29
2019-02-27T08:51:31.074Z,58.18
2019-02-27T08:52:31.072Z,57.98
2019-02-27T08:53:31.164Z,58.59
2019-02-27T08:54:33.008Z,57.95
2019-02-27T08:55:31.043Z,56.21
2019-02-27T08:56:31.079Z,56.00
2019-02-27T08:57:31.047Z,56.08
2019-02-27T08:58:32.982Z,55.79
2019-02-27T08:59:31.084Z,56.59
2019-02-27T09:00:31.049Z,56.59
2019-02-27T09:01:30.985Z,56.59
2019-02-27T09:02:30.992Z,56.49
2019-02-27T09:03:30.945Z,55.66
2019-02-27T09:04:30.963Z,55.64
2019-02-27T09:05:30.969Z,54.92
2019-02-27T09:06:30.951Z,54.10
2019-02-27T09:07:30.935Z,54.02
2019-02-27T09:08:31.413Z,53.89
2019-02-27T09:09:30.893Z,53.79
2019-02-27T09:10:31.038Z,53.49
2019-02-27T09:11:30.858Z,54.30
2019-02-27T09:12:30.950Z,54.00
2019-02-27T09:13:30.873Z,54.21
2019-02-27T09:14:30.836Z,53.79
2019-02-27T09:15:30.851Z,54.00
2019-02-27T09:16:30.847Z,53.49
2019-02-27T09:17:30.796Z,53.05
2019-02-27T09:18:33.412Z,53.46
2019-02-27T09:19:31.764Z,52.02
2019-02-27T09:20:30.757Z,52.23
2019-02-27T09:21:30.760Z,52.95
2019-02-27T09:22:30.743Z,52.51
2019-02-27T09:23:30.752Z,52.10
2019-02-27T09:24:30.749Z,51.31
2019-02-27T09:25:30.753Z,50.87
2019-02-27T09:26:30.692Z,50.97
2019-02-27T09:27:32.965Z,52.31
2019-02-27T09:28:30.676Z,50.46
2019-02-27T09:29:30.674Z,51.90
2019-02-27T09:30:30.652Z,51.56
2019-02-27T09:31:30.702Z,50.23
2019-02-27T09:32:30.626Z,50.64
2019-02-27T09:33:38.551Z,50.44
2019-02-27T09:34:31.691Z,50.36
2019-02-27T09:35:34.512Z,49.51
2019-02-27T09:36:31.574Z,50.77
2019-02-27T09:37:30.585Z,49.10
2019-02-27T09:38:30.559Z,48.80
2019-02-27T09:39:31.171Z,48.08
2019-02-27T09:40:30.550Z,48.80
2019-02-27T09:41:30.524Z,48.59
2019-02-27T09:42:30.518Z,48.90
2019-02-27T09:43:32.215Z,49.41
2019-02-27T09:44:30.492Z,50.13
2019-02-27T09:45:30.498Z,48.90
2019-02-27T09:46:30.480Z,49.00
2019-02-27T09:47:30.607Z,48.88
2019-02-27T09:48:31.159Z,49.18
2019-02-27T09:49:30.439Z,48.26
2019-02-27T09:50:30.418Z,49.39
2019-02-27T09:51:30.416Z,50.31
2019-02-27T09:52:30.722Z,48.67
2019-02-27T09:53:30.390Z,48.96
2019-02-27T09:54:30.369Z,47.22
2019-02-27T09:55:30.365Z,47.22
2019-02-27T09:56:30.361Z,47.13
2019-02-27T09:57:32.910Z,48.34
2019-02-27T09:58:30.325Z,48.24
2019-02-27T09:59:30.325Z,47.83
2019-02-27T10:00:39.640Z,47.31
2019-02-27T10:02:12.940Z,47.22
2019-02-27T10:03:12.456Z,45.98
2019-02-27T10:04:12.444Z,46.60
2019-02-27T10:05:12.522Z,47.63
2019-02-27T10:06:12.421Z,44.64
2019-02-27T10:07:14.629Z,44.94
2019-02-27T10:08:12.398Z,44.53
2019-02-27T10:09:12.370Z,44.00
2019-02-27T10:10:12.371Z,43.61
2019-02-27T10:11:12.355Z,44.10
2019-02-27T10:12:12.355Z,44.00
2019-02-27T10:13:12.347Z,43.28
2019-02-27T10:14:14.174Z,42.57
2019-02-27T10:15:12.307Z,43.16
2019-02-27T10:16:12.307Z,42.65
2019-02-27T10:17:12.297Z,43.04
2019-02-27T10:18:12.289Z,42.24
2019-02-27T10:19:12.322Z,43.06
2019-02-27T10:20:12.331Z,43.14
2019-02-27T10:21:12.726Z,43.98
2019-02-27T10:22:12.263Z,43.04
2019-02-27T10:23:12.246Z,42.43
2019-02-27T10:24:12.227Z,42.85
2019-02-27T10:25:12.202Z,44.06
2019-02-27T10:26:12.207Z,43.85
2019-02-27T10:27:12.195Z,44.47
2019-02-27T10:28:12.185Z,43.44
2019-02-27T10:29:13.434Z,42.53
2019-02-27T10:30:12.175Z,42.83
2019-02-27T10:31:12.691Z,44.47
2019-02-27T10:32:12.122Z,43.96
2019-02-27T10:33:12.129Z,44.37
2019-02-27T10:34:14.552Z,42.83
2019-02-27T10:35:13.164Z,43.85
2019-02-27T10:36:12.102Z,43.22
2019-02-27T10:37:13.290Z,43.44
2019-02-27T10:38:12.069Z,42.71
2019-02-27T10:39:12.065Z,42.91
2019-02-27T10:40:12.109Z,43.24
2019-02-27T10:41:12.044Z,43.53
2019-02-27T10:42:12.015Z,44.24
2019-02-27T10:43:12.007Z,44.65
2019-02-27T10:44:11.997Z,44.96
2019-02-27T10:45:11.983Z,44.24
2019-02-27T10:46:11.982Z,42.91
2019-02-27T10:47:11.959Z,43.20
2019-02-27T10:48:12.599Z,44.12
2019-02-27T10:49:11.937Z,44.63
2019-02-27T10:50:12.594Z,42.69
2019-02-27T10:51:11.928Z,43.10
2019-02-27T10:52:11.923Z,43.51
2019-02-27T10:53:11.901Z,43.00
2019-02-27T10:54:11.880Z,43.30
2019-02-27T10:55:14.195Z,43.20
2019-02-27T10:56:11.863Z,43.30
2019-02-27T10:57:12.321Z,43.20
2019-02-27T10:58:13.302Z,42.79
2019-02-27T10:59:11.834Z,41.97
2019-02-27T11:00:11.820Z,42.57
2019-02-27T11:01:11.811Z,41.96
2019-02-27T11:02:12.386Z,42.06
2019-02-27T11:03:11.799Z,42.47
2019-02-27T11:04:11.769Z,42.06
2019-02-27T11:05:11.756Z,42.06
2019-02-27T11:06:11.755Z,40.63
2019-02-27T11:07:13.191Z,41.96
2019-02-27T11:08:11.737Z,40.73
2019-02-27T11:09:11.740Z,40.61
2019-02-27T11:10:11.711Z,40.81
2019-02-27T11:11:13.146Z,42.67
2019-02-27T11:12:11.687Z,41.83
2019-02-27T11:13:11.689Z,40.81
2019-02-27T11:14:11.668Z,40.81
2019-02-27T11:15:11.665Z,39.59
2019-02-27T11:16:11.645Z,40.30
2019-02-27T11:17:11.637Z,40.51
2019-02-27T11:18:11.632Z,40.30
2019-02-27T11:19:14.134Z,40.51
2019-02-27T11:20:11.610Z,40.61
2019-02-27T11:21:11.586Z,39.98
2019-02-27T11:22:11.574Z,40.39
2019-02-27T11:23:11.575Z,40.28
2019-02-27T11:24:11.550Z,40.39
2019-02-27T11:25:11.561Z,40.39
2019-02-27T11:26:11.546Z,39.98
2019-02-27T11:27:11.521Z,39.17
2019-02-27T11:28:11.504Z,38.24
2019-02-27T11:29:11.523Z,39.57
2019-02-27T11:30:11.487Z,39.67
2019-02-27T11:31:11.654Z,36.90
2019-02-27T11:32:11.483Z,36.61
2019-02-27T11:33:11.444Z,37.43
2019-02-27T11:34:11.435Z,37.33
2019-02-27T11:35:11.449Z,36.49
2019-02-27T11:36:11.425Z,34.86
2019-02-27T11:37:13.871Z,36.49
2019-02-27T11:38:11.440Z,34.35
2019-02-27T11:39:11.371Z,34.76
2019-02-27T11:40:11.377Z,34.56
2019-02-27T11:41:14.966Z,34.15
2019-02-27T11:42:11.357Z,32.71
2019-02-27T11:43:11.347Z,34.03
2019-02-27T11:44:13.905Z,33.62
2019-02-27T11:45:11.318Z,32.49
2019-02-27T11:46:11.308Z,32.39
2019-02-27T11:47:11.921Z,33.00
2019-02-27T11:48:11.314Z,33.81
2019-02-27T11:49:11.274Z,33.10
2019-02-27T11:50:11.251Z,32.49
2019-02-27T11:51:11.237Z,33.01
2019-02-27T11:52:11.246Z,32.59
2019-02-27T11:53:11.249Z,32.90
2019-02-27T11:54:11.222Z,32.59
2019-02-27T11:55:11.266Z,33.61
2019-02-27T11:56:11.192Z,34.32
2019-02-27T11:57:11.177Z,33.10
2019-02-27T11:58:11.178Z,32.79
2019-02-27T11:59:12.929Z,31.16
2019-02-27T12:00:11.183Z,31.27
2019-02-27T12:01:12.163Z,31.86
2019-02-27T12:02:11.114Z,31.25
2019-02-27T12:03:11.928Z,33.39
2019-02-27T12:04:11.106Z,31.25
2019-02-27T12:05:11.243Z,31.35
2019-02-27T12:06:11.123Z,32.37
2019-02-27T12:07:12.310Z,31.86
2019-02-27T12:08:11.455Z,32.37
2019-02-27T12:09:11.079Z,32.47
2019-02-27T12:10:11.026Z,32.88
2019-02-27T12:11:13.201Z,31.86
2019-02-27T12:12:11.009Z,32.57
2019-02-27T12:13:10.998Z,31.96
2019-02-27T12:14:11.032Z,32.68
2019-02-27T12:15:10.994Z,32.68
2019-02-27T12:16:11.027Z,32.87
2019-02-27T12:17:10.985Z,32.05
2019-02-27T12:18:10.945Z,31.95
2019-02-27T12:19:10.942Z,32.05
2019-02-27T12:20:10.917Z,32.56
2019-02-27T12:21:10.915Z,32.66
2019-02-27T12:22:10.913Z,32.66
2019-02-27T12:23:10.904Z,32.25
2019-02-27T12:24:10.882Z,32.35
2019-02-27T12:25:10.869Z,32.54
2019-02-27T12:26:10.851Z,31.83
2019-02-27T12:27:24.340Z,33.76
2019-02-27T12:28:11.830Z,32.75
2019-02-27T12:29:10.821Z,32.46
2019-02-27T12:30:10.807Z,33.26
2019-02-27T12:31:13.448Z,32.75
2019-02-27T12:32:10.782Z,32.75
2019-02-27T12:33:10.776Z,32.85
2019-02-27T12:34:10.777Z,31.83
2019-02-27T12:35:10.934Z,32.14
2019-02-27T12:36:10.761Z,32.93
2019-02-27T12:37:23.800Z,32.53
2019-02-27T12:38:11.710Z,32.83
2019-02-27T12:39:15.283Z,32.12
2019-02-27T12:40:10.700Z,33.54
2019-02-27T12:41:10.682Z,33.44
2019-02-27T12:42:10.687Z,33.04
2019-02-27T12:43:10.700Z,32.83
2019-02-27T12:44:10.658Z,32.21
2019-02-27T12:45:10.635Z,32.53
2019-02-27T12:46:10.625Z,33.75
2019-02-27T12:47:10.628Z,33.34
2019-02-27T12:48:12.655Z,32.51
2019-02-27T12:49:10.597Z,32.41
2019-02-27T12:50:10.587Z,33.53
2019-02-27T12:51:10.570Z,32.82
2019-02-27T12:52:12.111Z,32.62
2019-02-27T12:53:10.556Z,32.01